Barkersville, South Carolina
Current Conditions -  °F | °C
As of 10:56 AM on Friday 24 Oct 2014 (Local Time) from KNBC Reporting Station
Broken Clouds Broken Clouds  
Wind Chill: 61°   Ceiling: 25000
Heat Index: 61°   Visibility: 10mi
Dew Point: 49°   Wind: 6mph
Humidity: 64%   Direction: 30°NNE
Pressure: 30.07"   Gusts: NA
Location:  32.6221°N, 81.0484°W
Report Text: KNBC 241456Z 03005KT 10SM SCT120 BKN250 16/09 A3007 RMK AO2 SLP184 T01610094 50009 $
Loading
Personal Weather Stations






























Interactive Weather Map
Tropical Storm Tracking
New forecast layout! Learn more

10-Day Weather Forecast

Advertisements
Track Severe Weather on mobile